Time;durP1;ratioP1;P1;durP2;ratioP2;P2;SDS_P1;SDS_P2;PMS_P1;PMS_P2;Temp;Humidity;BMP_temperature;BMP_pressure;BME280_temperature;BME280_humidity;BME280_pressure;Samples;Min_cycle;Max_cycle;Signal;HPM_P1;HPM_P2
2022/08/04 00:00:39;;;;;;;3.70;2.00;;;;;;;22.82;45.71;99872.97;4444605;32;35283;-73
2022/08/04 00:03:28;;;;;;;4.85;1.83;;;;;;;22.58;46.58;99870.81;4432675;32;34446;-76
2022/08/04 00:06:24;;;;;;;4.75;1.92;;;;;;;23.19;44.96;99883.22;4443366;32;35858;-73
2022/08/04 00:09:34;;;;;;;3.97;1.95;;;;;;;23.06;45.00;99879.97;4446669;32;35280;-74
2022/08/04 00:12:24;;;;;;;3.35;2.00;;;;;;;23.02;44.98;99881.13;4446674;32;35536;-73
2022/08/04 00:15:17;;;;;;;2.35;1.75;;;;;;;22.82;46.00;99878.56;4444886;32;33567;-73
2022/08/04 00:18:07;;;;;;;4.82;2.05;;;;;;;23.18;45.92;99867.66;4434387;32;35027;-73
2022/08/04 00:20:58;;;;;;;4.82;1.92;;;;;;;23.19;46.50;99874.84;4442003;32;35203;-73
2022/08/04 00:23:47;;;;;;;3.05;2.00;;;;;;;23.05;45.88;99871.97;4434159;32;33741;-73
2022/08/04 00:26:54;;;;;;;3.67;1.90;;;;;;;22.73;45.53;99875.31;4445669;32;34656;-73
2022/08/04 00:29:41;;;;;;;3.15;2.00;;;;;;;22.71;45.60;99872.09;4431020;32;94260;-74
2022/08/04 00:32:28;;;;;;;2.92;2.05;;;;;;;22.96;46.00;99865.91;4435923;32;35422;-74
2022/08/04 00:35:20;;;;;;;3.85;2.00;;;;;;;22.46;48.45;99883.09;4440274;32;34065;-74
2022/08/04 00:38:07;;;;;;;3.08;2.20;;;;;;;22.01;50.84;99879.41;4432272;32;35488;-73
2022/08/04 00:41:03;;;;;;;3.20;2.37;;;;;;;22.12;50.54;99885.91;4422593;32;36009;-74
2022/08/04 00:44:09;;;;;;;4.60;2.70;;;;;;;22.29;50.70;99887.31;4446188;32;34246;-74
2022/08/04 00:47:19;;;;;;;3.62;2.28;;;;;;;22.39;50.64;99888.59;4446427;32;34107;-73
2022/08/04 00:50:15;;;;;;;3.97;2.37;;;;;;;22.29;51.09;99890.09;4445659;32;34623;-74
2022/08/04 00:53:08;;;;;;;3.20;2.40;;;;;;;22.03;52.44;99891.00;4445921;32;34719;-73
2022/08/04 00:56:08;;;;;;;3.90;2.00;;;;;;;22.53;50.22;99885.13;4432280;32;34525;-73
2022/08/04 00:59:22;;;;;;;3.85;1.98;;;;;;;22.54;49.49;99890.34;4444211;32;33964;-73
2022/08/04 01:02:13;;;;;;;4.12;2.20;;;;;;;22.45;48.38;99893.44;4442655;32;35267;-73
2022/08/04 01:05:20;;;;;;;3.10;2.15;;;;;;;22.20;49.10;99898.00;4447208;32;34691;-73
2022/08/04 01:08:30;;;;;;;4.10;2.17;;;;;;;22.02;49.67;99890.19;4444120;32;35523;-74
2022/08/04 01:11:30;;;;;;;4.30;2.30;;;;;;;22.00;49.87;99898.16;4434554;32;34106;-74
2022/08/04 01:14:32;;;;;;;2.60;1.90;;;;;;;22.09;50.13;99895.06;4444411;32;34621;-74
2022/08/04 01:17:20;;;;;;;3.22;2.00;;;;;;;22.13;49.56;99897.88;4447206;32;35942;-73
2022/08/04 01:20:11;;;;;;;3.15;2.37;;;;;;;22.31;49.03;99892.50;4446892;32;34583;-74
2022/08/04 01:23:18;;;;;;;4.45;2.15;;;;;;;21.96;50.46;99886.13;4432369;32;34131;-73
2022/08/04 01:26:25;;;;;;;2.62;1.98;;;;;;;21.60;52.79;99892.47;4449213;32;33647;-73
2022/08/04 01:29:40;;;;;;;2.92;2.25;;;;;;;21.78;51.50;99890.72;4444886;32;34881;-74
2022/08/04 01:32:37;;;;;;;4.30;2.30;;;;;;;21.71;52.23;99891.44;4448020;32;34566;-74
2022/08/04 01:35:28;;;;;;;5.22;2.58;;;;;;;22.12;51.36;99897.09;4435859;32;33822;-73
2022/08/04 01:38:39;;;;;;;5.20;2.60;;;;;;;21.68;53.03;99894.97;4438208;32;35772;-73
2022/08/04 01:41:25;;;;;;;4.57;2.47;;;;;;;20.94;55.42;99895.53;4446199;32;34637;-73
2022/08/04 01:44:20;;;;;;;5.45;2.22;;;;;;;20.87;56.96;99896.22;4445833;32;34120;-74
2022/08/04 01:47:07;;;;;;;3.17;2.50;;;;;;;21.87;53.15;99901.59;4437420;32;35099;-74
2022/08/04 01:50:05;;;;;;;3.45;2.17;;;;;;;21.59;53.50;99905.62;4438256;32;35373;-74
2022/08/04 01:52:54;;;;;;;4.00;2.40;;;;;;;21.88;52.88;99898.41;4448616;32;35670;-74
2022/08/04 01:55:40;;;;;;;4.22;2.40;;;;;;;21.71;53.17;99894.22;4436862;32;34652;-74
2022/08/04 01:58:40;;;;;;;3.58;2.33;;;;;;;21.56;53.83;99901.59;4446924;32;33847;-74
2022/08/04 02:01:27;;;;;;;5.75;2.50;;;;;;;21.36;55.01;99888.97;4435614;32;34601;-73
2022/08/04 02:04:15;;;;;;;3.53;2.42;;;;;;;21.25;55.64;99890.81;4446910;32;34755;-73
2022/08/04 02:07:18;;;;;;;3.45;2.40;;;;;;;21.65;54.50;99890.16;4436959;32;35575;-73
2022/08/04 02:10:07;;;;;;;4.82;2.70;;;;;;;21.66;54.44;99896.53;4450472;32;33807;-73
2022/08/04 02:13:20;;;;;;;3.42;2.25;;;;;;;21.53;54.21;99894.00;4432412;32;34795;-73
2022/08/04 02:16:36;;;;;;;3.67;2.53;;;;;;;21.73;52.99;99886.28;4449276;32;34180;-73
2022/08/04 02:19:32;;;;;;;5.12;2.50;;;;;;;21.25;54.45;99894.41;4448627;32;35509;-73
2022/08/04 02:22:19;;;;;;;4.82;2.70;;;;;;;21.86;52.63;99886.00;4446364;32;33914;-73
2022/08/04 02:25:09;;;;;;;6.07;2.60;;;;;;;21.26;54.68;99884.03;4447216;32;35524;-73
2022/08/04 02:28:06;;;;;;;3.30;2.33;;;;;;;21.64;54.04;99890.56;4445748;32;35598;-73
2022/08/04 02:31:19;;;;;;;5.12;2.55;;;;;;;21.41;54.43;99885.88;4444752;32;34669;-73
2022/08/04 02:34:32;;;;;;;4.35;2.60;;;;;;;21.39;54.99;99885.47;4448230;32;34944;-73
2022/08/04 02:37:20;;;;;;;3.72;2.47;;;;;;;21.17;56.13;99875.97;4447576;32;34571;-74
2022/08/04 02:40:08;;;;;;;3.53;2.80;;;;;;;21.08;56.75;99887.37;4448707;32;36010;-73
2022/08/04 02:42:58;;;;;;;4.25;2.75;;;;;;;21.47;55.99;99886.37;4446282;32;34609;-73
2022/08/04 02:45:46;;;;;;;4.18;3.10;;;;;;;21.31;56.71;99880.94;4433035;32;33559;-73
2022/08/04 02:48:33;;;;;;;4.55;3.20;;;;;;;21.24;57.26;99886.44;4435034;32;34628;-73
2022/08/04 02:51:26;;;;;;;5.25;3.58;;;;;;;21.24;57.60;99886.44;4447843;32;34618;-73
2022/08/04 02:54:16;;;;;;;4.53;3.30;;;;;;;20.96;59.33;99875.69;4434018;32;35062;-74
2022/08/04 03:00:18;;;;;;;5.90;3.05;;;;;;;20.36;61.96;99876.28;4445079;32;34657;-73
2022/08/04 03:03:23;;;;;;;4.55;3.37;;;;;;;20.38;62.26;99873.94;4436925;32;34931;-73
2022/08/04 03:06:10;;;;;;;4.82;3.15;;;;;;;20.92;60.47;99881.19;4448048;32;34260;-74
2022/08/04 03:09:17;;;;;;;7.78;3.28;;;;;;;20.94;60.15;99876.03;4448654;32;34639;-73
2022/08/04 03:12:31;;;;;;;6.22;3.05;;;;;;;20.75;61.43;99881.69;4447070;32;34627;-73
2022/08/04 03:15:53;;;;;;;5.12;3.28;;;;;;;20.88;60.65;99885.91;4445271;32;34961;-73
2022/08/04 03:18:57;;;;;;;5.90;3.28;;;;;;;20.57;61.36;99882.22;4446957;32;34607;-73
2022/08/04 03:22:05;;;;;;;4.78;3.10;;;;;;;21.15;60.00;99883.12;4442975;32;34191;-73
2022/08/04 03:24:51;;;;;;;5.53;3.30;;;;;;;21.16;59.49;99884.72;4445790;32;34621;-73
2022/08/04 03:28:00;;;;;;;5.57;3.60;;;;;;;21.14;59.59;99885.06;4433799;32;34543;-73
2022/08/04 03:31:09;;;;;;;7.22;3.83;;;;;;;21.16;59.84;99881.94;4448056;32;34787;-73
2022/08/04 03:34:22;;;;;;;5.22;3.30;;;;;;;20.97;60.49;99886.41;4448740;32;34171;-73
2022/08/04 03:37:17;;;;;;;5.45;3.55;;;;;;;20.96;61.05;99884.81;4444983;32;33581;-73
2022/08/04 03:40:27;;;;;;;6.68;3.25;;;;;;;20.75;61.55;99884.50;4447744;32;34973;-73
2022/08/04 03:43:23;;;;;;;6.85;3.20;;;;;;;20.98;61.12;99885.25;4445425;32;35391;-73
2022/08/04 03:46:57;;;;;;;4.10;3.10;;;;;;;21.21;60.34;99889.97;4447265;32;34871;-74
2022/08/04 03:50:07;;;;;;;4.32;3.00;;;;;;;21.14;60.63;99892.63;4446892;32;35693;-74
2022/08/04 03:53:10;;;;;;;5.65;3.28;;;;;;;21.12;61.25;99885.47;4447338;32;34983;-73
2022/08/04 03:56:00;;;;;;;5.10;3.40;;;;;;;21.23;60.72;99888.41;4446980;32;35739;-73
2022/08/04 03:59:00;;;;;;;4.45;3.15;;;;;;;21.26;61.26;99895.19;4447608;32;34354;-73
2022/08/04 04:02:14;;;;;;;8.05;3.60;;;;;;;21.58;60.21;99901.25;4444354;32;34179;-73
2022/08/04 04:05:23;;;;;;;5.18;3.33;;;;;;;19.42;69.48;99903.44;4452856;32;35658;-73
2022/08/04 04:08:29;;;;;;;5.93;3.40;;;;;;;20.25;65.67;99903.09;4446945;32;35573;-71
2022/08/04 04:11:36;;;;;;;5.85;3.60;;;;;;;20.91;62.99;99899.06;4449099;32;34362;-72
2022/08/04 04:15:04;;;;;;;6.82;3.83;;;;;;;21.45;61.59;99909.03;4443887;32;35539;-72
2022/08/04 04:18:06;;;;;;;6.20;3.15;;;;;;;21.94;59.68;99907.22;4445590;32;33790;-72
2022/08/04 04:21:11;;;;;;;6.03;3.67;;;;;;;21.86;59.67;99903.56;4434037;32;34636;-72
2022/08/04 04:24:02;;;;;;;5.20;3.00;;;;;;;21.97;60.14;99904.50;4447217;32;34208;-72
2022/08/04 04:27:03;;;;;;;4.57;3.25;;;;;;;22.03;60.21;99907.75;4446089;32;34452;-72
2022/08/04 04:30:25;;;;;;;4.82;3.08;;;;;;;21.90;60.88;99906.41;4444606;32;34916;-72
2022/08/04 04:33:52;;;;;;;6.40;3.20;;;;;;;22.21;59.06;99910.75;4443103;32;34194;-72
2022/08/04 04:36:51;;;;;;;4.93;2.97;;;;;;;22.37;57.95;99896.53;4446943;32;34607;-72
2022/08/04 04:39:58;;;;;;;4.32;3.22;;;;;;;22.69;56.09;99899.63;4443439;32;35513;-72
2022/08/04 04:43:16;;;;;;;5.47;3.00;;;;;;;22.87;55.76;99908.94;4436461;32;36021;-72
2022/08/04 04:46:16;;;;;;;4.43;2.60;;;;;;;22.85;55.49;99911.34;4445772;32;34408;-72
2022/08/04 04:49:33;;;;;;;4.70;2.67;;;;;;;22.93;55.54;99908.56;4417903;32;34144;-72
2022/08/04 04:52:45;;;;;;;7.12;2.92;;;;;;;23.16;54.27;99903.56;4437495;32;34777;-72
2022/08/04 04:55:49;;;;;;;6.30;2.85;;;;;;;23.31;54.31;99912.88;4450509;32;36038;-72
2022/08/04 04:58:37;;;;;;;8.50;2.80;;;;;;;23.26;54.05;99913.22;4431256;32;35293;-71
2022/08/04 05:01:44;;;;;;;6.07;2.90;;;;;;;23.20;54.47;99912.78;4441145;32;34184;-73
2022/08/04 05:04:52;;;;;;;4.75;2.72;;;;;;;23.38;54.13;99914.88;4450054;32;34597;-73
2022/08/04 05:08:01;;;;;;;4.07;2.67;;;;;;;23.46;52.70;99916.53;4446601;32;34892;-73
2022/08/04 05:11:29;;;;;;;7.10;3.10;;;;;;;23.37;54.33;99913.25;4447928;32;35503;-73
2022/08/04 05:14:22;;;;;;;7.05;2.85;;;;;;;23.66;52.36;99925.41;4440543;32;34768;-73
2022/08/04 05:17:29;;;;;;;6.57;3.03;;;;;;;23.41;53.73;99933.69;4443636;32;34582;-73
2022/08/04 05:20:46;;;;;;;7.37;2.75;;;;;;;23.65;54.60;99930.22;4434370;32;34916;-73
2022/08/04 05:23:37;;;;;;;4.70;2.72;;;;;;;23.98;52.22;99928.38;4422866;32;34463;-72
2022/08/04 05:26:27;;;;;;;;;;;;;;;24.10;50.70;99927.19;4444931;32;33859;-73
2022/08/04 05:29:35;;;;;;;5.28;2.92;;;;;;;24.19;51.21;99927.59;4438501;32;35831;-71
2022/08/04 05:32:36;;;;;;;4.47;2.47;;;;;;;24.16;48.62;99923.63;4438025;32;34952;-71
2022/08/04 05:35:34;;;;;;;4.15;2.70;;;;;;;24.29;47.80;99940.03;4438388;32;34572;-71
2022/08/04 05:38:42;;;;;;;7.10;2.72;;;;;;;24.12;50.20;99948.00;4448257;32;35096;-72
2022/08/04 05:41:34;;;;;;;4.87;2.47;;;;;;;24.71;48.41;99936.53;4448262;32;33463;-72
2022/08/04 05:44:35;;;;;;;3.37;2.47;;;;;;;24.67;47.21;99933.69;4446645;32;34760;-73
2022/08/04 05:47:30;;;;;;;5.57;2.85;;;;;;;24.80;46.54;99938.94;4445908;32;34068;-72
2022/08/04 05:50:20;;;;;;;3.60;2.42;;;;;;;24.98;46.68;99931.31;4446071;32;35064;-72
2022/08/04 05:53:08;;;;;;;6.28;2.67;;;;;;;25.01;47.27;99941.72;4448864;32;35221;-72
2022/08/04 05:55:57;;;;;;;8.25;2.65;;;;;;;24.74;46.11;99946.13;4447822;32;35889;-72
2022/08/04 05:58:46;;;;;;;4.47;2.40;;;;;;;25.19;45.40;99941.75;4447482;32;34570;-72
2022/08/04 06:01:37;;;;;;;3.97;2.70;;;;;;;25.37;43.74;99941.69;4443539;32;35370;-73
2022/08/04 06:04:47;;;;;;;4.82;2.62;;;;;;;25.53;43.42;99942.06;4448022;32;34792;-72
2022/08/04 06:07:37;;;;;;;4.20;2.37;;;;;;;25.54;42.09;99940.06;4435801;32;34973;-72
2022/08/04 06:10:48;;;;;;;3.97;2.47;;;;;;;25.88;41.27;99942.38;4448620;32;35624;-72
2022/08/04 06:13:50;;;;;;;3.53;2.50;;;;;;;25.84;41.79;99947.97;4446354;32;35003;-72
2022/08/04 06:16:43;;;;;;;5.05;2.65;;;;;;;25.85;42.62;99943.97;4449814;32;35623;-72
2022/08/04 06:19:39;;;;;;;4.57;2.30;;;;;;;25.97;42.11;99945.53;4444980;32;34886;-72
2022/08/04 06:22:53;;;;;;;4.57;2.40;;;;;;;25.71;42.98;99941.19;4448368;32;34587;-72
2022/08/04 06:25:49;;;;;;;4.18;2.65;;;;;;;26.27;40.94;99953.41;4429393;32;33784;-73
2022/08/04 06:28:41;;;;;;;4.80;2.62;;;;;;;25.95;41.36;99948.72;4444829;32;34291;-73
2022/08/04 06:31:56;;;;;;;4.93;2.62;;;;;;;26.14;40.62;99952.25;4429439;32;35668;-71
2022/08/04 06:35:06;;;;;;;6.85;2.97;;;;;;;25.97;41.20;99946.31;4423730;32;35145;-71
2022/08/04 06:37:54;;;;;;;5.60;2.65;;;;;;;26.59;39.74;99941.19;4415954;32;34127;-71
2022/08/04 06:40:47;;;;;;;5.28;3.00;;;;;;;26.43;39.95;99953.66;4430663;32;34613;-71
2022/08/04 06:43:39;;;;;;;4.93;3.12;;;;;;;26.87;40.13;99946.56;4418033;32;36342;-71
2022/08/04 06:46:41;;;;;;;6.28;2.55;;;;;;;26.98;39.73;99954.09;4422537;32;33234;-70
2022/08/04 06:49:30;;;;;;;6.85;3.30;;;;;;;26.92;38.95;99942.50;4422298;32;34140;-71
2022/08/04 06:52:37;;;;;;;6.55;2.92;;;;;;;27.06;38.38;99944.38;4432357;32;34680;-71
2022/08/04 06:55:25;;;;;;;5.65;3.15;;;;;;;26.71;39.41;99937.84;4427469;32;34640;-71
2022/08/04 06:58:14;;;;;;;4.32;2.87;;;;;;;26.62;39.23;99940.34;4432030;32;34517;-71
2022/08/04 07:01:04;;;;;;;4.32;2.70;;;;;;;27.00;38.98;99944.03;4422113;32;34149;-71
2022/08/04 07:03:54;;;;;;;4.93;2.87;;;;;;;26.67;39.87;99943.50;4435143;32;35592;-72
2022/08/04 07:06:43;;;;;;;3.78;2.60;;;;;;;26.89;39.70;99944.12;4434526;32;34953;-71
2022/08/04 07:09:31;;;;;;;8.32;2.90;;;;;;;27.57;37.17;99937.84;4433896;32;34521;-71
2022/08/04 07:12:20;;;;;;;6.07;2.85;;;;;;;27.61;37.91;99943.44;4435030;32;33716;-69
2022/08/04 07:15:10;;;;;;;9.30;3.10;;;;;;;27.04;39.63;99949.63;4418806;32;35537;-69
2022/08/04 07:18:03;;;;;;;5.72;2.67;;;;;;;27.35;39.44;99951.38;4414002;32;35543;-70
2022/08/04 07:20:52;;;;;;;4.80;2.90;;;;;;;27.48;37.83;99939.56;4415696;32;34644;-71
2022/08/04 07:23:39;;;;;;;4.70;3.20;;;;;;;27.69;37.71;99933.69;4431459;32;34212;-71
2022/08/04 07:26:27;;;;;;;7.40;2.60;;;;;;;27.92;36.87;99937.84;4422423;32;34627;-71
2022/08/04 07:32:12;;;;;;;5.18;2.80;;;;;;;27.87;36.71;99938.34;4444066;32;34882;-71
2022/08/04 07:35:06;;;;;;;8.50;2.95;;;;;;;28.33;35.45;99937.69;4440850;32;34207;-70
2022/08/04 07:38:16;;;;;;;9.07;3.35;;;;;;;28.25;35.69;99939.81;4451136;32;34600;-71
2022/08/04 07:41:09;;;;;;;6.70;2.90;;;;;;;28.29;35.70;99936.12;4451999;32;34971;-70
2022/08/04 07:44:18;;;;;;;5.03;2.72;;;;;;;27.93;36.46;99936.66;4448380;32;34194;-71
2022/08/04 07:47:07;;;;;;;5.30;2.45;;;;;;;28.16;36.57;99933.91;4447816;32;34130;-71
2022/08/04 07:50:00;;;;;;;6.25;2.50;;;;;;;28.56;34.88;99933.37;4445785;32;34777;-71
2022/08/04 07:52:49;;;;;;;4.55;2.97;;;;;;;29.07;33.68;99926.47;4435949;32;34876;-71
2022/08/04 07:55:59;;;;;;;5.70;2.65;;;;;;;28.92;33.75;99923.09;4441836;32;34472;-71
2022/08/04 07:58:46;;;;;;;5.07;2.70;;;;;;;28.44;34.78;99924.28;4427493;32;35222;-73
2022/08/04 08:01:37;;;;;;;10.10;3.70;;;;;;;28.88;33.93;99922.34;4447387;32;34731;-71
2022/08/04 08:04:27;;;;;;;5.85;2.90;;;;;;;29.23;32.93;99920.16;4442590;32;35969;-70
2022/08/04 08:07:13;;;;;;;3.70;2.85;;;;;;;29.32;32.83;99916.75;4427401;32;35466;-70
2022/08/04 08:10:03;;;;;;;6.32;2.62;;;;;;;29.49;32.89;99921.25;4433447;32;34305;-70
2022/08/04 08:12:53;;;;;;;6.05;3.15;;;;;;;29.48;32.75;99925.28;4447973;32;34661;-70
2022/08/04 08:15:44;;;;;;;6.00;3.22;;;;;;;29.67;32.13;99926.56;4443949;32;35899;-70
2022/08/04 08:18:33;;;;;;;5.18;3.00;;;;;;;29.81;31.92;99925.47;4434266;32;34586;-70
2022/08/04 08:21:25;;;;;;;5.07;2.80;;;;;;;30.14;31.37;99928.38;4434101;32;34187;-71
2022/08/04 08:24:15;;;;;;;4.07;2.85;;;;;;;30.09;31.50;99920.44;4447023;32;34722;-71
2022/08/04 08:27:06;;;;;;;3.87;2.87;;;;;;;30.30;31.58;99927.66;4434730;32;35036;-74
2022/08/04 08:29:54;;;;;;;3.55;2.55;;;;;;;29.85;31.33;99920.53;4449195;32;35414;-75
2022/08/04 08:32:41;;;;;;;3.60;2.90;;;;;;;30.52;31.25;99919.47;4447732;32;34165;-74
2022/08/04 08:35:34;;;;;;;3.25;2.53;;;;;;;30.98;31.41;99926.03;4446122;32;34728;-73
2022/08/04 08:38:45;;;;;;;5.22;2.87;;;;;;;30.65;31.60;99926.81;4446434;32;36332;-74
2022/08/04 08:41:53;;;;;;;4.07;2.87;;;;;;;30.88;30.61;99927.88;4448419;32;34559;-73
2022/08/04 08:45:01;;;;;;;6.03;3.42;;;;;;;30.87;30.68;99932.75;4445749;32;34205;-75
2022/08/04 08:48:03;;;;;;;4.18;2.70;;;;;;;31.14;30.95;99918.31;4444140;32;34662;-72
2022/08/04 08:51:23;;;;;;;9.77;3.03;;;;;;;31.50;29.25;99927.88;4437857;32;34925;-74
2022/08/04 08:54:38;;;;;;;4.80;2.92;;;;;;;31.42;29.40;99920.81;4434844;32;34622;-73
2022/08/04 08:57:42;;;;;;;6.55;2.80;;;;;;;31.28;29.34;99914.31;4448019;32;35359;-72
2022/08/04 09:01:01;;;;;;;4.57;2.62;;;;;;;31.20;29.66;99927.06;4437039;32;34541;-74
2022/08/04 09:04:18;;;;;;;5.78;3.22;;;;;;;31.76;29.55;99918.22;4434461;32;34721;-73
2022/08/04 09:07:31;;;;;;;3.62;2.80;;;;;;;31.70;29.68;99920.00;4443672;32;34015;-73
2022/08/04 09:10:55;;;;;;;5.05;3.00;;;;;;;31.61;29.30;99924.75;4449046;32;34091;-74
2022/08/04 09:14:07;;;;;;;9.40;3.00;;;;;;;31.65;29.07;99926.25;4410703;32;34363;-72
2022/08/04 09:17:09;;;;;;;7.53;2.90;;;;;;;32.17;28.61;99925.09;4435250;32;35584;-72
2022/08/04 09:20:05;;;;;;;3.70;2.90;;;;;;;32.40;26.64;99914.69;4436102;32;35456;-73
2022/08/04 09:23:10;;;;;;;6.15;3.12;;;;;;;32.38;27.80;99914.34;4448223;32;33709;-76
2022/08/04 09:26:33;;;;;;;3.58;2.75;;;;;;;32.72;27.85;99916.47;4443647;32;35626;-75
2022/08/04 09:29:47;;;;;;;4.55;2.65;;;;;;;33.08;27.00;99909.63;4447089;32;34921;-73
2022/08/04 09:32:38;;;;;;;7.35;3.08;;;;;;;33.01;28.33;99921.22;4442416;32;34637;-73
2022/08/04 09:36:02;;;;;;;4.35;3.05;;;;;;;32.93;26.60;99910.09;4442023;32;33903;-73
2022/08/04 09:39:05;;;;;;;5.65;2.85;;;;;;;33.19;26.35;99910.03;4448717;32;34584;-73
2022/08/04 09:42:26;;;;;;;3.50;2.70;;;;;;;33.02;26.83;99915.09;4447168;32;36128;-73
2022/08/04 09:45:28;;;;;;;3.75;3.00;;;;;;;32.84;26.62;99909.19;4447154;32;35164;-74
2022/08/04 09:48:51;;;;;;;4.05;2.95;;;;;;;33.54;26.31;99902.28;4434707;32;34050;-73
2022/08/04 09:51:44;;;;;;;6.20;2.87;;;;;;;33.42;26.50;99908.00;4432489;32;34466;-73
2022/08/04 09:55:12;;;;;;;5.30;3.20;;;;;;;32.63;26.44;99894.47;4449215;32;35041;-73
2022/08/04 09:58:23;;;;;;;4.37;2.87;;;;;;;31.61;27.38;99900.03;4445811;32;35345;-72
2022/08/04 10:04:21;;;;;;;7.25;2.80;;;;;;;33.57;27.19;99892.84;4446194;32;34368;-73
2022/08/04 10:07:23;;;;;;;4.47;3.00;;;;;;;33.87;24.61;99886.84;4447271;32;34909;-73
2022/08/04 10:10:30;;;;;;;3.62;2.70;;;;;;;33.87;26.52;99887.66;4448633;32;35450;-70
2022/08/04 10:13:40;;;;;;;5.30;2.80;;;;;;;33.96;24.06;99878.37;4433321;32;34983;-70
2022/08/04 10:17:01;;;;;;;3.33;2.67;;;;;;;34.51;24.08;99880.66;4440852;32;35279;-71
2022/08/04 10:20:13;;;;;;;4.18;2.83;;;;;;;34.79;23.84;99878.72;4447366;32;34622;-71
2022/08/04 10:23:34;;;;;;;4.78;3.00;;;;;;;34.21;25.34;99871.72;4449986;32;34395;-71
2022/08/04 10:26:57;;;;;;;4.90;3.20;;;;;;;35.12;24.01;99873.19;4439013;32;34805;-70
2022/08/04 10:29:54;;;;;;;4.28;2.83;;;;;;;35.20;23.39;99870.84;4438323;32;34445;-71
2022/08/04 10:33:03;;;;;;;3.85;2.90;;;;;;;34.18;24.07;99869.81;4449033;32;35016;-71
2022/08/04 10:35:55;;;;;;;4.18;3.05;;;;;;;34.92;24.30;99873.63;4441658;32;35567;-71
2022/08/04 10:38:50;;;;;;;6.50;3.12;;;;;;;35.41;23.91;99872.72;4444006;32;34122;-71
2022/08/04 10:42:00;;;;;;;5.07;3.15;;;;;;;35.50;22.40;99867.00;4449067;32;35585;-70
2022/08/04 10:45:01;;;;;;;3.53;2.72;;;;;;;34.09;23.45;99855.56;4447458;32;35172;-71
2022/08/04 10:47:58;;;;;;;5.82;3.10;;;;;;;35.28;23.19;99858.66;4450678;32;35147;-71
2022/08/04 10:54:12;;;;;;;4.20;3.05;;;;;;;35.13;24.01;99852.03;4444712;32;34643;-71
2022/08/04 10:57:11;;;;;;;5.85;3.28;;;;;;;35.07;23.26;99851.09;4437714;32;34936;-71
2022/08/04 11:00:23;;;;;;;6.37;3.30;;;;;;;35.56;23.56;99848.03;4446683;32;35567;-71
2022/08/04 11:03:22;;;;;;;4.93;3.27;;;;;;;36.03;23.13;99843.75;4436757;32;34274;-71
2022/08/04 11:06:13;;;;;;;;;;;;;;;34.59;23.65;99848.63;4441938;32;35557;-71
2022/08/04 11:09:10;;;;;;;3.45;3.03;;;;;;;34.67;24.50;99838.53;4439083;32;35210;-71
2022/08/04 11:12:09;;;;;;;5.37;3.50;;;;;;;35.56;22.64;99839.47;4448594;32;35412;-71
2022/08/04 11:15:13;;;;;;;3.80;2.97;;;;;;;34.64;23.88;99844.38;4438894;32;34205;-71
2022/08/04 11:18:06;;;;;;;5.75;3.22;;;;;;;35.42;23.20;99830.78;4439982;32;35666;-72
2022/08/04 11:21:11;;;;;;;5.05;3.72;;;;;;;34.34;23.75;99834.63;4438875;32;34088;-71
2022/08/04 11:24:03;;;;;;;5.15;3.42;;;;;;;35.29;22.22;99834.63;4444163;32;35142;-70
2022/08/04 11:27:01;;;;;;;5.63;3.50;;;;;;;36.08;22.90;99836.62;4448244;32;34122;-70
2022/08/04 11:30:08;;;;;;;4.53;3.55;;;;;;;35.95;21.91;99838.91;4434238;32;34630;-70
2022/08/04 11:33:25;;;;;;;5.62;3.22;;;;;;;36.58;20.59;99828.44;4442225;32;33697;-70
2022/08/04 11:39:22;;;;;;;6.20;3.47;;;;;;;35.37;21.97;99818.75;4450708;32;33814;-71
2022/08/04 11:42:27;;;;;;;4.43;3.12;;;;;;;35.40;22.90;99827.63;4450927;32;34337;-71
2022/08/04 11:45:29;;;;;;;6.65;3.50;;;;;;;35.19;23.19;99823.69;4447599;32;35038;-71
2022/08/04 11:48:26;;;;;;;5.25;3.95;;;;;;;36.56;21.55;99813.09;4444858;32;35486;-71
2022/08/04 11:51:14;;;;;;;6.55;3.70;;;;;;;36.97;22.47;99808.47;4447657;32;34198;-71
2022/08/04 11:54:06;;;;;;;4.40;3.50;;;;;;;37.25;20.25;99809.03;4447523;32;35508;-71
2022/08/04 11:56:54;;;;;;;7.43;3.47;;;;;;;37.55;20.38;99794.78;4450772;32;35042;-71
2022/08/04 11:59:47;;;;;;;6.43;3.30;;;;;;;37.95;19.12;99799.09;4444119;32;34799;-71
2022/08/04 12:03:05;;;;;;;4.57;3.60;;;;;;;37.88;19.92;99800.22;4449442;32;35168;-71
2022/08/04 12:06:19;;;;;;;5.40;3.28;;;;;;;36.33;20.04;99783.25;4449227;32;34722;-72
2022/08/04 12:09:11;;;;;;;6.87;3.42;;;;;;;35.36;20.15;99794.38;4443928;32;35990;-71
2022/08/04 12:12:26;;;;;;;5.10;3.45;;;;;;;34.77;22.15;99799.47;4450169;32;35533;-71
2022/08/04 12:15:27;;;;;;;7.25;4.00;;;;;;;34.26;22.88;99789.41;4445249;32;34079;-71
2022/08/04 12:18:34;;;;;;;5.65;3.47;;;;;;;35.98;21.06;99778.06;4448083;32;34617;-71
2022/08/04 12:21:33;;;;;;;5.28;3.65;;;;;;;36.87;19.90;99776.34;4449489;32;34965;-71
2022/08/04 12:24:53;;;;;;;5.65;3.92;;;;;;;37.09;20.54;99770.31;4448632;32;35514;-71
2022/08/04 12:28:19;;;;;;;4.32;3.65;;;;;;;34.35;22.30;99782.97;4427342;32;35025;-70
2022/08/04 12:31:22;;;;;;;5.07;3.62;;;;;;;35.02;21.50;99783.34;4430488;32;35567;-70
2022/08/04 12:34:26;;;;;;;5.90;3.60;;;;;;;35.33;21.87;99780.31;4427320;32;35641;-70
2022/08/04 12:37:33;;;;;;;5.10;3.47;;;;;;;35.70;21.07;99772.47;4429424;32;34488;-70
2022/08/04 12:40:24;;;;;;;5.43;3.60;;;;;;;36.77;20.65;99766.28;4439034;32;34965;-70
2022/08/04 12:43:35;;;;;;;4.47;3.30;;;;;;;37.20;20.19;99769.75;4434273;32;35470;-70
2022/08/04 12:46:26;;;;;;;4.10;3.65;;;;;;;35.45;21.52;99767.16;4414805;32;35013;-70
2022/08/04 12:49:15;;;;;;;6.00;3.35;;;;;;;35.78;21.58;99762.31;4417086;32;35421;-70
2022/08/04 12:52:07;;;;;;;5.32;3.80;;;;;;;36.14;20.35;99759.75;4430372;32;35051;-70
2022/08/04 12:57:53;;;;;;;5.35;3.65;;;;;;;37.07;20.14;99752.88;4420818;32;34971;-70
2022/08/04 13:03:46;;;;;;;5.18;3.55;;;;;;;38.34;19.04;99738.75;4420614;32;34395;-71
2022/08/04 13:06:40;;;;;;;5.05;3.60;;;;;;;39.02;18.51;99752.62;4436277;32;34666;-71
2022/08/04 13:09:33;;;;;;;6.28;3.67;;;;;;;38.69;19.11;99753.78;4416290;32;36008;-70
2022/08/04 13:12:33;;;;;;;6.32;3.78;;;;;;;38.03;19.45;99743.81;4420185;32;34548;-70
2022/08/04 13:15:35;;;;;;;6.70;3.67;;;;;;;36.35;20.07;99747.28;4426002;32;34122;-71
2022/08/04 13:18:47;;;;;;;6.55;3.80;;;;;;;36.89;19.99;99738.75;4436271;32;35560;-70
2022/08/04 13:21:42;;;;;;;7.55;3.65;;;;;;;38.28;19.44;99730.09;4421880;32;34692;-70
2022/08/04 13:24:52;;;;;;;6.68;3.45;;;;;;;36.67;19.55;99731.34;4423270;32;34632;-70
2022/08/04 13:28:02;;;;;;;4.57;3.58;;;;;;;36.21;20.12;99734.53;4433471;32;34720;-70
2022/08/04 13:31:06;;;;;;;4.32;3.90;;;;;;;36.56;20.43;99733.97;4432292;32;34214;-71
2022/08/04 13:34:07;;;;;;;5.68;3.75;;;;;;;35.17;21.81;99735.09;4439759;32;35060;-70
2022/08/04 13:37:10;;;;;;;5.47;3.67;;;;;;;36.46;20.15;99723.88;4428394;32;34976;-70
2022/08/04 13:40:16;;;;;;;5.85;3.83;;;;;;;35.44;20.97;99735.03;4428205;32;33800;-70
2022/08/04 13:43:23;;;;;;;6.00;3.55;;;;;;;34.04;22.24;99726.22;4434930;32;34593;-71
2022/08/04 13:46:36;;;;;;;4.47;3.30;;;;;;;35.03;20.83;99719.44;4418828;32;34481;-70
2022/08/04 13:49:24;;;;;;;6.72;3.62;;;;;;;36.04;21.38;99710.53;4421120;32;34552;-70
2022/08/04 13:52:41;;;;;;;6.95;3.58;;;;;;;37.17;19.57;99704.22;4415594;32;34099;-70
2022/08/04 13:55:35;;;;;;;5.53;3.80;;;;;;;37.73;19.03;99693.72;4436860;32;34719;-71
2022/08/04 13:58:31;;;;;;;5.00;3.50;;;;;;;37.48;19.30;99704.50;4414506;32;35975;-70
2022/08/04 14:01:25;;;;;;;4.97;3.70;;;;;;;37.39;19.15;99687.44;4417134;32;34648;-70
2022/08/04 14:04:30;;;;;;;5.57;3.55;;;;;;;38.50;18.54;99698.13;4434756;32;35214;-70
2022/08/04 14:07:23;;;;;;;;;;;;;;;39.06;18.19;99700.81;4422492;32;34626;-70
2022/08/04 14:10:21;;;;;;;5.03;3.08;;;;;;;38.87;18.45;99691.78;4430325;32;36125;-70
2022/08/04 14:16:27;;;;;;;6.60;3.33;;;;;;;38.74;18.41;99680.72;4435688;32;34682;-70
2022/08/04 14:19:14;;;;;;;6.15;3.50;;;;;;;38.72;18.31;99689.00;4429351;32;35593;-70
2022/08/04 14:22:02;;;;;;;5.75;3.60;;;;;;;38.41;19.19;99681.91;4439228;32;34925;-70
2022/08/04 14:25:03;;;;;;;4.78;3.60;;;;;;;38.10;18.96;99676.81;4425289;32;34547;-70
2022/08/04 14:28:16;;;;;;;5.00;3.40;;;;;;;38.89;18.52;99678.53;4429749;32;33950;-70
2022/08/04 14:31:20;;;;;;;7.95;3.90;;;;;;;38.73;18.30;99681.97;4433188;32;34201;-71
2022/08/04 14:34:27;;;;;;;8.07;3.62;;;;;;;39.19;17.89;99681.13;4453158;32;34738;-71